createdAt,value
2023-01-29T00:00:30.481Z,19.38
2023-01-29T00:03:28.342Z,20.45
2023-01-29T00:06:26.435Z,25.50
2023-01-29T00:09:24.183Z,18.05
2023-01-29T00:12:22.212Z,22.85
2023-01-29T00:15:21.173Z,20.52
2023-01-29T00:18:19.255Z,22.73
2023-01-29T00:21:20.358Z,26.98
2023-01-29T00:24:18.253Z,24.25
2023-01-29T00:27:16.049Z,23.42
2023-01-29T00:30:14.660Z,29.38
2023-01-29T00:33:14.096Z,22.50
2023-01-29T00:36:13.766Z,25.50
2023-01-29T00:39:11.613Z,26.45
2023-01-29T00:42:24.835Z,22.45
2023-01-29T00:45:22.628Z,22.67
2023-01-29T00:48:20.410Z,24.67
2023-01-29T00:51:18.444Z,22.23
2023-01-29T00:54:16.655Z,24.15
2023-01-29T00:57:14.423Z,22.92
2023-01-29T01:00:15.623Z,23.73
2023-01-29T01:03:13.499Z,28.02
2023-01-29T01:06:11.891Z,26.15
2023-01-29T01:09:26.671Z,25.02
2023-01-29T01:12:24.480Z,24.33
2023-01-29T01:15:23.966Z,29.67
2023-01-29T01:18:22.975Z,22.63
2023-01-29T01:21:20.892Z,25.75
2023-01-29T01:24:18.801Z,24.60
2023-01-29T01:27:17.156Z,24.70
2023-01-29T01:30:16.960Z,19.10
2023-01-29T01:33:15.080Z,21.60
2023-01-29T01:36:14.532Z,23.75
2023-01-29T01:39:12.243Z,23.27
2023-01-29T01:42:14.447Z,22.40
2023-01-29T01:45:29.869Z,26.40
2023-01-29T01:48:28.035Z,23.58
2023-01-29T01:51:29.174Z,23.85
2023-01-29T01:54:31.656Z,19.02
2023-01-29T01:57:31.982Z,23.27
2023-01-29T02:00:30.020Z,26.67
2023-01-29T02:03:47.339Z,23.15
2023-01-29T02:07:01.206Z,25.85
2023-01-29T02:10:09.035Z,34.65
2023-01-29T02:13:08.799Z,23.15
2023-01-29T02:16:06.673Z,26.02
2023-01-29T02:19:07.781Z,24.60
2023-01-29T02:22:40.556Z,23.65
2023-01-29T02:26:00.947Z,24.67
2023-01-29T02:29:23.959Z,34.13
2023-01-29T02:32:41.444Z,33.72
2023-01-29T02:35:45.814Z,33.30
2023-01-29T02:39:02.568Z,39.83
2023-01-29T02:42:18.997Z,24.13
2023-01-29T02:45:25.616Z,31.60
2023-01-29T02:48:26.329Z,34.92
2023-01-29T02:51:39.171Z,28.13
2023-01-29T02:54:54.134Z,27.23
2023-01-29T02:57:56.442Z,29.67
2023-01-29T03:00:56.926Z,30.98
2023-01-29T03:03:59.808Z,30.83
2023-01-29T03:07:03.856Z,38.13
2023-01-29T03:10:02.896Z,37.30
2023-01-29T03:13:08.802Z,33.22
2023-01-29T03:16:19.680Z,41.58
2023-01-29T03:19:23.689Z,48.42
2023-01-29T03:22:23.900Z,40.53
2023-01-29T03:25:40.471Z,29.77
2023-01-29T03:28:55.930Z,31.23
2023-01-29T03:32:11.934Z,37.38
2023-01-29T03:35:12.238Z,38.28
2023-01-29T03:38:12.568Z,30.73
2023-01-29T03:41:21.820Z,31.73
2023-01-29T03:44:41.497Z,30.48
2023-01-29T03:47:49.798Z,34.58
2023-01-29T03:51:12.639Z,32.22
2023-01-29T03:54:33.399Z,28.55
2023-01-29T03:57:36.618Z,26.13
2023-01-29T04:00:41.250Z,33.92
2023-01-29T04:03:44.171Z,40.42
2023-01-29T04:06:44.136Z,62.40
2023-01-29T04:09:50.691Z,70.38
2023-01-29T04:12:54.303Z,49.05
2023-01-29T04:15:57.233Z,37.65
2023-01-29T04:18:55.975Z,33.40
2023-01-29T04:22:02.491Z,33.63
2023-01-29T04:25:03.645Z,39.08
2023-01-29T04:28:09.107Z,43.40
2023-01-29T04:31:10.994Z,40.30
2023-01-29T04:34:23.828Z,33.53
2023-01-29T04:37:37.539Z,41.17
2023-01-29T04:40:55.171Z,35.80
2023-01-29T04:44:03.992Z,38.47
2023-01-29T04:47:22.560Z,37.42
2023-01-29T04:50:38.768Z,33.92
2023-01-29T04:54:00.615Z,39.80
2023-01-29T04:57:15.449Z,41.80
2023-01-29T05:00:20.588Z,36.70
2023-01-29T05:03:18.433Z,34.50
2023-01-29T05:06:17.510Z,36.15
2023-01-29T05:09:18.207Z,53.08
2023-01-29T05:12:18.588Z,41.50
2023-01-29T05:15:22.735Z,38.97
2023-01-29T05:18:20.668Z,37.42
2023-01-29T05:21:19.643Z,41.13
2023-01-29T05:24:21.606Z,47.58
2023-01-29T05:27:38.883Z,39.60
2023-01-29T05:30:38.801Z,41.13
2023-01-29T05:33:36.800Z,40.40
2023-01-29T05:36:34.641Z,47.88
2023-01-29T05:39:32.535Z,47.60
2023-01-29T05:42:30.351Z,50.92
2023-01-29T05:45:28.340Z,51.33
2023-01-29T05:48:29.495Z,43.15
2023-01-29T05:51:27.584Z,56.63
2023-01-29T05:54:25.299Z,60.00
2023-01-29T05:57:23.147Z,46.20
2023-01-29T06:00:21.046Z,47.33
2023-01-29T06:03:18.910Z,54.58
2023-01-29T06:06:17.818Z,40.95
2023-01-29T06:09:15.780Z,51.78
2023-01-29T06:12:13.544Z,43.45
2023-01-29T06:15:12.997Z,43.00
2023-01-29T06:18:11.276Z,49.03
2023-01-29T06:21:12.294Z,50.85
2023-01-29T06:24:10.237Z,48.30
2023-01-29T06:27:08.035Z,62.40
2023-01-29T06:30:26.176Z,71.13
2023-01-29T06:33:23.909Z,66.80
2023-01-29T06:36:23.569Z,58.72
2023-01-29T06:39:24.724Z,88.32
2023-01-29T06:42:28.462Z,124.38
2023-01-29T06:45:26.334Z,65.15
2023-01-29T06:48:25.342Z,68.38
2023-01-29T06:51:23.729Z,97.10
2023-01-29T06:54:21.591Z,109.70
2023-01-29T06:57:19.588Z,120.85
2023-01-29T07:00:18.058Z,146.60
2023-01-29T07:03:16.034Z,118.35
2023-01-29T07:06:13.819Z,109.28
2023-01-29T07:09:14.544Z,123.90
2023-01-29T07:12:12.579Z,102.80
2023-01-29T07:15:13.175Z,127.82
2023-01-29T07:18:13.032Z,140.52
2023-01-29T07:21:10.842Z,180.85
2023-01-29T07:24:11.609Z,171.70
2023-01-29T07:27:09.504Z,170.07
2023-01-29T07:30:08.072Z,198.07
2023-01-29T07:33:07.702Z,215.25
2023-01-29T07:36:09.671Z,217.65
2023-01-29T07:39:07.449Z,234.90
2023-01-29T07:42:05.560Z,215.00
2023-01-29T07:45:03.662Z,187.88
2023-01-29T07:48:02.057Z,178.93
2023-01-29T07:51:00.115Z,167.27
2023-01-29T07:53:57.912Z,148.65
2023-01-29T07:56:55.802Z,151.27
2023-01-29T07:59:53.851Z,132.80
2023-01-29T08:02:51.953Z,109.47
2023-01-29T08:05:50.113Z,96.95
2023-01-29T08:08:47.922Z,96.88
2023-01-29T08:11:45.770Z,92.38
2023-01-29T08:14:46.022Z,91.22
2023-01-29T08:17:57.261Z,80.07
2023-01-29T08:21:02.222Z,93.82
2023-01-29T08:27:04.785Z,99.75
2023-01-29T08:30:05.828Z,93.10
2023-01-29T08:33:06.955Z,87.57
2023-01-29T08:36:05.642Z,84.68
2023-01-29T08:39:03.795Z,84.18
2023-01-29T08:42:01.577Z,67.15
2023-01-29T08:44:59.398Z,72.57
2023-01-29T08:47:57.100Z,74.93
2023-01-29T08:50:59.345Z,66.35
2023-01-29T08:53:57.208Z,67.82
2023-01-29T08:56:55.043Z,64.68
2023-01-29T08:59:53.551Z,61.45
2023-01-29T09:02:51.430Z,56.55
2023-01-29T09:05:49.764Z,66.78
2023-01-29T09:08:48.493Z,55.90
2023-01-29T09:11:46.425Z,57.75
2023-01-29T09:14:44.213Z,53.67
2023-01-29T09:17:42.066Z,63.70
2023-01-29T09:20:40.798Z,68.40
2023-01-29T09:23:39.809Z,63.92
2023-01-29T09:26:38.172Z,61.08
2023-01-29T09:29:36.121Z,59.67
2023-01-29T09:35:53.232Z,55.75
2023-01-29T09:38:51.402Z,67.97
2023-01-29T09:42:04.662Z,64.22
2023-01-29T09:45:22.332Z,56.53
2023-01-29T09:48:23.050Z,75.10
2023-01-29T09:51:29.482Z,80.65
2023-01-29T09:54:34.616Z,106.88
2023-01-29T09:57:47.395Z,110.70
2023-01-29T10:01:09.108Z,144.65
2023-01-29T10:04:33.804Z,144.15
2023-01-29T10:07:58.246Z,136.13
2023-01-29T10:11:22.164Z,184.13
2023-01-29T10:14:44.463Z,183.93
2023-01-29T10:18:05.756Z,183.38
2023-01-29T10:21:23.990Z,221.95
2023-01-29T10:24:39.698Z,229.63
2023-01-29T10:27:41.639Z,174.40
2023-01-29T10:30:44.981Z,145.30
2023-01-29T10:36:57.813Z,95.05
2023-01-29T10:39:55.680Z,159.55
2023-01-29T10:43:12.963Z,131.90
2023-01-29T10:46:40.291Z,152.52
2023-01-29T10:49:55.675Z,140.13
2023-01-29T10:53:16.197Z,135.93
2023-01-29T10:56:47.637Z,139.50
2023-01-29T11:00:01.246Z,135.90
2023-01-29T11:03:08.151Z,129.10
2023-01-29T11:06:22.031Z,146.70
2023-01-29T11:09:36.714Z,153.15
2023-01-29T11:12:35.125Z,175.90
2023-01-29T11:15:35.594Z,205.07
2023-01-29T11:18:51.663Z,235.63
2023-01-29T11:22:05.008Z,206.02
2023-01-29T11:25:19.355Z,198.38
2023-01-29T11:28:37.227Z,178.40
2023-01-29T11:31:39.272Z,162.18
2023-01-29T11:35:06.452Z,160.90
2023-01-29T11:38:10.395Z,171.57
2023-01-29T11:41:19.064Z,165.27
2023-01-29T11:44:30.040Z,246.82
2023-01-29T11:47:30.602Z,264.13
2023-01-29T11:50:32.459Z,285.02
2023-01-29T11:53:46.096Z,254.55
2023-01-29T11:56:46.511Z,281.48
2023-01-29T11:59:50.660Z,255.60
2023-01-29T12:02:53.540Z,222.25
2023-01-29T12:05:59.890Z,191.23
2023-01-29T12:09:00.579Z,157.88
2023-01-29T12:12:19.014Z,142.10
2023-01-29T12:15:24.758Z,157.57
2023-01-29T12:18:42.224Z,117.85
2023-01-29T12:21:51.502Z,125.15
2023-01-29T12:24:59.738Z,138.98
2023-01-29T12:28:09.383Z,123.25
2023-01-29T12:31:18.645Z,128.77
2023-01-29T12:34:28.370Z,220.88
2023-01-29T12:37:46.152Z,153.30
2023-01-29T12:41:03.557Z,154.02
2023-01-29T12:44:22.785Z,141.05
2023-01-29T12:47:29.139Z,147.23
2023-01-29T12:50:36.035Z,149.05
2023-01-29T12:53:39.378Z,146.70
2023-01-29T12:59:47.957Z,116.53
2023-01-29T13:03:08.955Z,131.00
2023-01-29T13:06:12.402Z,141.43
2023-01-29T13:12:17.484Z,151.45
2023-01-29T13:15:29.891Z,134.30
2023-01-29T13:18:58.475Z,130.35
2023-01-29T13:22:00.746Z,115.60
2023-01-29T13:25:05.159Z,130.15
2023-01-29T13:28:04.098Z,111.15
2023-01-29T13:31:32.675Z,137.38
2023-01-29T13:34:35.325Z,147.13
2023-01-29T13:37:39.369Z,153.73
2023-01-29T13:40:38.868Z,138.85
2023-01-29T13:43:39.334Z,122.00
2023-01-29T13:46:42.047Z,121.40
2023-01-29T13:49:46.265Z,114.82
2023-01-29T13:52:58.610Z,126.03
2023-01-29T13:56:16.345Z,110.80
2023-01-29T13:59:26.247Z,113.30
2023-01-29T14:02:31.278Z,99.35
2023-01-29T14:05:41.645Z,102.00
2023-01-29T14:08:45.132Z,136.35
2023-01-29T14:11:49.047Z,131.88
2023-01-29T14:15:12.049Z,119.05
2023-01-29T14:18:27.308Z,114.13
2023-01-29T14:21:32.300Z,123.55
2023-01-29T14:24:32.393Z,111.50
2023-01-29T14:27:30.598Z,122.13
2023-01-29T14:30:33.315Z,113.10
2023-01-29T14:33:43.616Z,117.45
2023-01-29T14:36:45.430Z,114.55
2023-01-29T14:39:53.979Z,114.63
2023-01-29T14:43:21.350Z,104.25
2023-01-29T14:46:42.284Z,109.35
2023-01-29T14:49:57.207Z,107.50
2023-01-29T14:53:11.070Z,117.38
2023-01-29T14:56:22.688Z,119.13
2023-01-29T14:59:27.061Z,141.95
2023-01-29T15:02:38.740Z,156.70
2023-01-29T15:05:39.866Z,134.63
2023-01-29T15:08:44.628Z,171.40
2023-01-29T15:11:59.193Z,170.18
2023-01-29T15:15:17.656Z,162.25
2023-01-29T15:18:24.445Z,170.52
2023-01-29T15:21:22.246Z,204.02
2023-01-29T15:24:20.017Z,191.45
2023-01-29T15:27:20.617Z,175.45
2023-01-29T15:30:22.663Z,193.20
2023-01-29T15:33:20.775Z,154.63
2023-01-29T15:36:29.312Z,144.52
2023-01-29T15:39:29.031Z,144.00
2023-01-29T15:42:29.395Z,137.15
2023-01-29T15:45:33.047Z,138.63
2023-01-29T15:48:41.823Z,148.57
2023-01-29T15:51:46.900Z,151.20
2023-01-29T15:54:46.859Z,145.35
2023-01-29T15:57:46.125Z,202.07
2023-01-29T16:00:52.758Z,172.15
2023-01-29T16:03:59.386Z,215.85
2023-01-29T16:06:59.478Z,246.55
2023-01-29T16:10:05.292Z,279.35
2023-01-29T16:13:06.791Z,261.90
2023-01-29T16:16:19.965Z,344.50
2023-01-29T16:19:28.146Z,358.40
2023-01-29T16:22:31.684Z,315.58
2023-01-29T16:25:32.097Z,274.30
2023-01-29T16:28:31.295Z,271.42
2023-01-29T16:31:31.911Z,342.58
2023-01-29T16:34:38.384Z,376.33
2023-01-29T16:37:37.190Z,322.25
2023-01-29T16:40:38.593Z,265.17
2023-01-29T16:43:58.093Z,298.25
2023-01-29T16:46:56.001Z,271.98
2023-01-29T16:49:57.495Z,336.52
2023-01-29T16:53:01.313Z,292.80
2023-01-29T16:56:11.785Z,266.88
2023-01-29T16:59:21.475Z,274.42
2023-01-29T17:02:38.268Z,294.65
2023-01-29T17:05:38.430Z,303.10
2023-01-29T17:08:37.044Z,271.52
2023-01-29T17:11:41.451Z,256.05
2023-01-29T17:14:42.376Z,235.48
2023-01-29T17:17:41.047Z,232.57
2023-01-29T17:20:38.889Z,245.60
2023-01-29T17:23:36.681Z,239.25
2023-01-29T17:26:34.522Z,228.55
2023-01-29T17:29:32.938Z,217.90
2023-01-29T17:32:44.440Z,201.77
2023-01-29T17:35:44.949Z,197.32
2023-01-29T17:38:43.013Z,181.18
2023-01-29T17:41:40.956Z,182.15
2023-01-29T17:44:38.697Z,179.40
2023-01-29T17:47:36.842Z,177.40
2023-01-29T17:50:36.177Z,147.95
2023-01-29T17:53:45.211Z,140.18
2023-01-29T17:56:44.491Z,135.35
2023-01-29T17:59:44.439Z,136.38
2023-01-29T18:02:42.154Z,148.23
2023-01-29T18:05:43.213Z,129.50
2023-01-29T18:08:41.016Z,121.97
2023-01-29T18:11:38.969Z,104.68
2023-01-29T18:14:37.033Z,100.30
2023-01-29T18:17:35.207Z,109.30
2023-01-29T18:20:37.138Z,98.57
2023-01-29T18:23:35.468Z,89.68
2023-01-29T18:26:33.339Z,82.00
2023-01-29T18:29:31.256Z,81.38
2023-01-29T18:32:29.359Z,80.63
2023-01-29T18:35:29.220Z,75.78
2023-01-29T18:38:27.154Z,93.03
2023-01-29T18:41:31.095Z,93.95
2023-01-29T18:44:30.160Z,83.57
2023-01-29T18:47:27.961Z,102.60
2023-01-29T18:50:26.901Z,110.38
2023-01-29T18:53:24.987Z,103.25
2023-01-29T18:56:22.693Z,120.68
2023-01-29T18:59:20.591Z,134.95
2023-01-29T19:02:19.795Z,131.75
2023-01-29T19:05:22.018Z,122.90
2023-01-29T19:08:19.911Z,112.20
2023-01-29T19:11:18.751Z,120.70
2023-01-29T19:14:16.828Z,101.80
2023-01-29T19:17:14.756Z,115.93
2023-01-29T19:20:13.003Z,91.30
2023-01-29T19:23:10.917Z,98.88
2023-01-29T19:26:10.716Z,97.75
2023-01-29T19:29:09.683Z,87.63
2023-01-29T19:32:09.233Z,96.55
2023-01-29T19:35:07.160Z,96.60
2023-01-29T19:38:05.595Z,106.68
2023-01-29T19:41:05.363Z,98.88
2023-01-29T19:44:03.069Z,125.15
2023-01-29T19:47:01.284Z,138.75
2023-01-29T19:50:00.292Z,131.25
2023-01-29T19:52:59.935Z,93.75
2023-01-29T19:56:02.391Z,65.72
2023-01-29T19:59:00.364Z,66.67
2023-01-29T20:01:58.236Z,55.97
2023-01-29T20:04:56.876Z,71.97
2023-01-29T20:07:55.387Z,87.95
2023-01-29T20:10:53.411Z,124.68
2023-01-29T20:13:52.754Z,208.25
2023-01-29T20:16:51.957Z,333.48
2023-01-29T20:19:53.387Z,321.95
2023-01-29T20:29:39.725Z,135.35
2023-01-29T20:32:37.649Z,64.97
2023-01-29T20:35:36.993Z,54.28
2023-01-29T20:38:35.440Z,56.47
2023-01-29T20:41:34.640Z,45.30
2023-01-29T20:44:32.351Z,58.28
2023-01-29T20:47:30.370Z,49.20
2023-01-29T20:50:28.175Z,57.97
2023-01-29T20:53:26.322Z,49.88
2023-01-29T20:56:32.087Z,50.22
2023-01-29T20:59:36.309Z,51.70
2023-01-29T21:02:34.475Z,45.92
2023-01-29T21:08:54.062Z,55.83
2023-01-29T21:11:52.198Z,65.20
2023-01-29T21:14:50.178Z,63.33
2023-01-29T21:17:52.372Z,58.20
2023-01-29T21:20:50.910Z,50.50
2023-01-29T21:23:48.760Z,57.58
2023-01-29T21:26:47.463Z,58.08
2023-01-29T21:29:45.470Z,61.17
2023-01-29T21:32:43.268Z,57.35
2023-01-29T21:35:41.026Z,59.47
2023-01-29T21:38:39.163Z,65.35
2023-01-29T21:41:52.318Z,71.25
2023-01-29T21:47:47.624Z,50.42
2023-01-29T21:50:46.091Z,46.25
2023-01-29T21:53:43.933Z,50.45
2023-01-29T21:56:41.882Z,98.75
2023-01-29T21:59:39.896Z,288.55
2023-01-29T22:02:37.646Z,309.35
2023-01-29T22:05:35.819Z,285.23
2023-01-29T22:08:33.598Z,177.77
2023-01-29T22:11:31.449Z,160.88
2023-01-29T22:14:29.764Z,90.93
2023-01-29T22:17:27.555Z,136.57
2023-01-29T22:20:30.721Z,108.22
2023-01-29T22:23:29.189Z,76.32
2023-01-29T22:26:27.095Z,57.15
2023-01-29T22:29:24.873Z,53.10
2023-01-29T22:32:22.562Z,43.63
2023-01-29T22:35:20.342Z,43.13
2023-01-29T22:38:18.028Z,48.10
2023-01-29T22:41:16.017Z,39.67
2023-01-29T22:44:13.839Z,46.07
2023-01-29T22:47:11.647Z,39.07
2023-01-29T22:50:10.072Z,37.77
2023-01-29T22:53:08.345Z,34.05
2023-01-29T22:56:07.589Z,39.22
2023-01-29T22:59:05.507Z,58.47
2023-01-29T23:02:03.387Z,51.90
2023-01-29T23:05:01.243Z,150.68
2023-01-29T23:07:59.145Z,99.97
2023-01-29T23:11:14.764Z,88.17
2023-01-29T23:14:12.685Z,123.17
2023-01-29T23:17:11.165Z,135.83
2023-01-29T23:20:09.494Z,163.37
2023-01-29T23:23:07.269Z,212.60
2023-01-29T23:26:22.002Z,195.30
2023-01-29T23:29:19.900Z,178.10
2023-01-29T23:32:19.993Z,191.07
2023-01-29T23:35:17.851Z,190.70
2023-01-29T23:38:15.539Z,201.57
2023-01-29T23:41:13.260Z,182.85
2023-01-29T23:44:11.086Z,206.70
2023-01-29T23:47:09.685Z,165.97
2023-01-29T23:50:07.841Z,161.07
2023-01-29T23:53:05.807Z,159.77
2023-01-29T23:56:05.448Z,173.93
2023-01-29T23:59:03.485Z,145.87
